Portada
METAR-TAF:

METAR-TAF

Aeropuertos :

Souillac

Brive-la-Gaillarde, Francia

latitud: 45-02-28N, longitud: 001-28-59E, altitud: 311 m

Observación

El informe se hizo hace 34 minutos, a las 23:00 UTC
Viento 4 kt del este-sureste, variando entre norte-noreste y sur
Temperatura 6°C
Humedad 93%
Presión 1016 hPa
Visibilidad: 5000 m
lluvia ligera, neblina

METAR: LFSL 152300Z AUTO 11004KT 020V170 5000 -RA BR BKN002/// OVC014/// ///TCU 06/05 Q1016

Hora: 00:34 (23:34 UTC)

Pronóstico

El informe se hizo hace 4 horas y 47 minutos, a las 18:47 UTC
Pronóstico válido del 15 a las 18 UTC al 16 a las 03 UTC
Viento 6 kt del sur-sureste
Visibilidad: 6000 m
Cielo cubierto a una altura de 500 ft
lluvia ligera, llovizna
Temporalmente
del 15 a las 18 UTC al 16 a las 03 UTC
Visibilidad: 2000 m
Cielo cubierto a una altura de 200 ft

TAF: LFSL 151847Z 1518/1603 16006KT 6000 -RADZ OVC005 TEMPO 1518/1603 2000 OVC002

Observaciones y pronósticos meteorológicos de más de 4000 aeropuertos (mensajes METAR y TAF).

Los puntos amarillos y rojos representan las estaciones disponibles.

Ponga el ratón en el punto deseado para ver el nombre de la estación.

Haga clic para ver las observaciones y los pronósticos meteorológicos.

Para cambiar el mapa : haga clic en los botones verdes con una cruz de color negro para hacer un zoom, en el botón verde con un guión para alejar o en las flechas verdes para mapas adyacentes.


METAR-TAF: